createdAt,value
2023-03-30T00:00:18.697Z,32.33
2023-03-30T00:02:49.544Z,32.77
2023-03-30T00:05:18.312Z,32.67
2023-03-30T00:07:46.857Z,32.14
2023-03-30T00:10:17.792Z,32.57
2023-03-30T00:12:47.343Z,32.04
2023-03-30T00:15:16.660Z,32.52
2023-03-30T00:17:44.917Z,32.50
2023-03-30T00:20:15.129Z,32.35
2023-03-30T00:22:43.444Z,32.73
2023-03-30T00:25:13.147Z,32.09
2023-03-30T00:27:41.274Z,32.46
2023-03-30T00:30:11.443Z,32.56
2023-03-30T00:32:39.561Z,32.11
2023-03-30T00:35:08.608Z,32.76
2023-03-30T00:37:38.526Z,32.02
2023-03-30T00:40:08.150Z,32.46
2023-03-30T00:42:36.474Z,32.10
2023-03-30T00:45:18.188Z,32.78
2023-03-30T00:47:48.673Z,32.56
2023-03-30T00:50:17.026Z,32.58
2023-03-30T00:52:47.413Z,32.22
2023-03-30T00:55:15.502Z,32.23
2023-03-30T00:57:44.308Z,32.76
2023-03-30T01:00:15.045Z,32.09
2023-03-30T01:02:46.253Z,32.74
2023-03-30T01:05:14.682Z,32.13
2023-03-30T01:07:43.348Z,32.83
2023-03-30T01:10:13.776Z,32.46
2023-03-30T01:12:42.032Z,32.22
2023-03-30T01:15:10.901Z,32.19
2023-03-30T01:17:45.409Z,32.28
2023-03-30T01:20:36.271Z,32.23
2023-03-30T01:23:28.349Z,32.81
2023-03-30T01:26:22.185Z,32.70
2023-03-30T01:28:51.860Z,32.40
2023-03-30T01:31:50.502Z,32.11
2023-03-30T01:34:51.786Z,32.68
2023-03-30T01:38:08.354Z,32.75
2023-03-30T01:40:39.765Z,32.21
2023-03-30T01:43:10.368Z,32.90
2023-03-30T01:45:42.335Z,32.33
2023-03-30T01:48:12.336Z,32.32
2023-03-30T01:50:41.871Z,32.53
2023-03-30T01:53:13.644Z,32.35
2023-03-30T01:55:43.316Z,32.59
2023-03-30T01:58:15.350Z,33.00
2023-03-30T02:00:45.097Z,32.30
2023-03-30T02:03:14.991Z,32.58
2023-03-30T02:05:43.314Z,32.61
2023-03-30T02:08:14.082Z,32.89
2023-03-30T02:10:43.745Z,32.65
2023-03-30T02:13:11.846Z,32.73
2023-03-30T02:15:44.600Z,32.66
2023-03-30T02:18:13.704Z,32.31
2023-03-30T02:20:42.875Z,32.68
2023-03-30T02:23:11.563Z,32.61
2023-03-30T02:25:40.436Z,32.30
2023-03-30T02:28:10.206Z,33.05
2023-03-30T02:30:40.256Z,32.26
2023-03-30T02:33:08.556Z,32.55
2023-03-30T02:35:44.741Z,32.98
2023-03-30T02:38:27.005Z,32.83
2023-03-30T02:41:00.240Z,32.66
2023-03-30T02:43:35.048Z,33.08
2023-03-30T02:46:31.717Z,32.29
2023-03-30T02:49:06.404Z,32.42
2023-03-30T02:51:41.263Z,32.78
2023-03-30T02:54:26.846Z,32.48
2023-03-30T02:57:30.107Z,32.87
2023-03-30T03:00:18.516Z,32.72
2023-03-30T03:02:49.398Z,32.59
2023-03-30T03:05:27.456Z,32.53
2023-03-30T03:08:09.722Z,32.93
2023-03-30T03:10:38.724Z,32.80
2023-03-30T03:13:08.250Z,32.76
2023-03-30T03:15:38.551Z,32.74
2023-03-30T03:18:10.659Z,33.08
2023-03-30T03:20:39.401Z,32.76
2023-03-30T03:23:07.581Z,32.91
2023-03-30T03:25:57.009Z,32.42
2023-03-30T03:28:25.383Z,32.79
2023-03-30T03:30:59.917Z,32.52
2023-03-30T03:33:28.325Z,32.33
2023-03-30T03:36:03.562Z,32.95
2023-03-30T03:38:34.187Z,32.52
2023-03-30T03:41:02.590Z,32.42
2023-03-30T03:43:31.948Z,32.66
2023-03-30T03:46:01.542Z,33.09
2023-03-30T03:48:29.770Z,32.74
2023-03-30T03:50:58.888Z,32.41
2023-03-30T03:53:29.307Z,32.50
2023-03-30T03:56:02.388Z,32.85
2023-03-30T03:58:30.765Z,32.79
2023-03-30T04:01:01.930Z,32.38
2023-03-30T04:03:30.434Z,32.80
2023-03-30T04:06:00.339Z,32.99
2023-03-30T04:08:29.658Z,32.44
2023-03-30T04:11:07.980Z,32.43
2023-03-30T04:14:06.632Z,33.18
2023-03-30T04:17:06.508Z,33.04
2023-03-30T04:19:55.242Z,33.11
2023-03-30T04:22:46.193Z,33.26
2023-03-30T04:25:43.000Z,33.04
2023-03-30T04:28:21.998Z,32.87
2023-03-30T04:30:52.824Z,33.06
2023-03-30T04:33:47.377Z,32.73
2023-03-30T04:36:43.454Z,32.62
2023-03-30T04:39:41.577Z,33.14
2023-03-30T04:42:30.294Z,33.24
2023-03-30T04:45:21.767Z,32.99
2023-03-30T04:48:08.795Z,33.18
2023-03-30T04:50:38.425Z,33.85
2023-03-30T04:53:23.155Z,33.91
2023-03-30T04:56:11.827Z,33.68
2023-03-30T04:59:00.238Z,33.47
2023-03-30T05:01:51.075Z,33.37
2023-03-30T05:04:28.724Z,33.82
2023-03-30T05:07:16.722Z,33.91
2023-03-30T05:10:03.295Z,33.27
2023-03-30T05:12:50.066Z,33.57
2023-03-30T05:15:37.018Z,33.20
2023-03-30T05:18:33.060Z,33.35
2023-03-30T05:21:17.855Z,33.92
2023-03-30T05:24:06.311Z,33.73
2023-03-30T05:26:58.627Z,33.33
2023-03-30T05:30:05.812Z,33.32
2023-03-30T05:32:49.958Z,33.29
2023-03-30T05:35:36.386Z,32.52
2023-03-30T05:38:04.850Z,31.38
2023-03-30T05:40:43.402Z,31.96
2023-03-30T05:43:39.323Z,31.81
2023-03-30T05:46:15.375Z,32.42
2023-03-30T05:49:17.257Z,33.02
2023-03-30T05:51:53.765Z,32.45
2023-03-30T05:54:42.118Z,32.44
2023-03-30T05:57:43.820Z,33.10
2023-03-30T06:00:28.971Z,32.68
2023-03-30T06:03:07.923Z,32.65
2023-03-30T06:05:36.423Z,33.02
2023-03-30T06:08:06.126Z,32.39
2023-03-30T06:10:34.292Z,32.88
2023-03-30T06:13:03.882Z,33.04
2023-03-30T06:15:43.040Z,32.40
2023-03-30T06:18:16.236Z,32.73
2023-03-30T06:20:52.900Z,32.52
2023-03-30T06:23:23.101Z,32.88
2023-03-30T06:25:54.654Z,32.87
2023-03-30T06:28:29.846Z,32.41
2023-03-30T06:30:58.152Z,33.14
2023-03-30T06:33:27.877Z,32.49
2023-03-30T06:35:58.865Z,32.83
2023-03-30T06:38:27.713Z,32.86
2023-03-30T06:40:57.264Z,32.51
2023-03-30T06:43:27.460Z,33.24
2023-03-30T06:46:23.264Z,33.27
2023-03-30T06:48:52.471Z,33.16
2023-03-30T06:51:39.202Z,33.12
2023-03-30T06:54:08.507Z,32.79
2023-03-30T06:56:39.408Z,33.14
2023-03-30T06:59:14.034Z,32.48
2023-03-30T07:02:14.891Z,32.97
2023-03-30T07:05:01.243Z,33.19
2023-03-30T07:07:53.626Z,32.51
2023-03-30T07:10:22.712Z,33.17
2023-03-30T07:12:51.537Z,32.94
2023-03-30T07:15:22.654Z,32.91
2023-03-30T07:17:53.564Z,33.08
2023-03-30T07:20:22.213Z,32.81
2023-03-30T07:23:09.208Z,32.77
2023-03-30T07:25:37.488Z,32.75
2023-03-30T07:28:14.140Z,33.38
2023-03-30T07:30:43.000Z,32.60
2023-03-30T07:33:14.808Z,32.61
2023-03-30T07:35:45.036Z,32.64
2023-03-30T07:38:14.629Z,32.96
2023-03-30T07:40:48.691Z,32.62
2023-03-30T07:43:17.418Z,33.36
2023-03-30T07:45:46.024Z,33.30
2023-03-30T07:48:21.891Z,32.77
2023-03-30T07:50:52.481Z,32.83
2023-03-30T07:53:22.818Z,33.41
2023-03-30T07:55:53.223Z,32.82
2023-03-30T07:58:30.396Z,33.02
2023-03-30T08:00:58.819Z,33.27
2023-03-30T08:03:49.298Z,32.75
2023-03-30T08:06:18.492Z,33.15
2023-03-30T08:08:49.568Z,33.32
2023-03-30T08:11:17.799Z,33.46
2023-03-30T08:13:46.060Z,33.30
2023-03-30T08:16:14.223Z,33.15
2023-03-30T08:18:42.532Z,33.19
2023-03-30T08:21:12.323Z,32.81
2023-03-30T08:23:40.406Z,33.47
2023-03-30T08:26:08.891Z,32.86
2023-03-30T08:28:36.946Z,33.03
2023-03-30T08:31:06.122Z,32.85
2023-03-30T08:33:34.927Z,33.21
2023-03-30T08:36:03.144Z,33.45
2023-03-30T08:38:32.950Z,33.00
2023-03-30T08:41:01.282Z,33.49
2023-03-30T08:43:43.884Z,32.89
2023-03-30T08:46:13.657Z,33.36
2023-03-30T08:48:42.985Z,33.61
2023-03-30T08:51:16.793Z,33.26
2023-03-30T08:53:47.337Z,33.61
2023-03-30T08:56:18.174Z,32.86
2023-03-30T08:58:48.581Z,32.71
2023-03-30T09:01:20.236Z,33.69
2023-03-30T09:03:59.740Z,33.65
2023-03-30T09:06:31.150Z,33.58
2023-03-30T09:09:00.690Z,33.03
2023-03-30T09:11:32.042Z,33.41
2023-03-30T09:14:01.789Z,33.52
2023-03-30T09:16:34.647Z,33.51
2023-03-30T09:19:03.186Z,33.64
2023-03-30T09:21:32.263Z,33.42
2023-03-30T09:24:02.155Z,33.25
2023-03-30T09:26:34.624Z,32.96
2023-03-30T09:29:04.643Z,33.11
2023-03-30T09:31:34.416Z,33.62
2023-03-30T09:34:06.390Z,33.44
2023-03-30T09:36:38.435Z,33.17
2023-03-30T09:39:11.787Z,33.45
2023-03-30T09:41:58.493Z,33.81
2023-03-30T09:44:28.539Z,33.38
2023-03-30T09:46:59.651Z,33.63
2023-03-30T09:49:28.319Z,33.72
2023-03-30T09:51:58.352Z,33.10
2023-03-30T09:54:28.241Z,33.57
2023-03-30T09:56:57.034Z,33.60
2023-03-30T09:59:30.951Z,33.25
2023-03-30T10:02:11.048Z,33.73
2023-03-30T10:04:58.556Z,33.29
2023-03-30T10:07:27.963Z,33.99
2023-03-30T10:09:57.464Z,34.02
2023-03-30T10:12:25.993Z,33.96
2023-03-30T10:14:57.452Z,33.37
2023-03-30T10:17:26.546Z,33.73
2023-03-30T10:20:03.539Z,33.44
2023-03-30T10:22:39.688Z,33.34
2023-03-30T10:25:18.630Z,33.94
2023-03-30T10:27:47.480Z,34.08
2023-03-30T10:30:19.877Z,33.23
2023-03-30T10:32:48.098Z,33.68
2023-03-30T10:35:19.632Z,34.04
2023-03-30T10:37:48.179Z,33.40
2023-03-30T10:40:19.992Z,33.83
2023-03-30T10:42:48.397Z,33.63
2023-03-30T10:45:18.322Z,33.94
2023-03-30T10:47:53.477Z,34.03
2023-03-30T10:50:26.908Z,33.50
2023-03-30T10:53:00.458Z,33.81
2023-03-30T10:55:33.112Z,33.99
2023-03-30T10:58:04.344Z,34.13
2023-03-30T11:00:35.999Z,34.11
2023-03-30T11:03:08.157Z,33.65
2023-03-30T11:05:37.311Z,33.74
2023-03-30T11:08:06.213Z,33.82
2023-03-30T11:10:38.429Z,34.04
2023-03-30T11:13:08.157Z,34.29
2023-03-30T11:15:38.866Z,33.88
2023-03-30T11:18:11.483Z,34.17
2023-03-30T11:20:41.914Z,33.76
2023-03-30T11:23:15.213Z,34.30
2023-03-30T11:25:52.207Z,34.16
2023-03-30T11:28:24.492Z,33.54
2023-03-30T11:30:52.765Z,34.42
2023-03-30T11:33:23.335Z,34.36
2023-03-30T11:35:53.938Z,33.81
2023-03-30T11:38:24.733Z,33.94
2023-03-30T11:40:56.089Z,33.89
2023-03-30T11:43:30.157Z,33.95
2023-03-30T11:46:04.038Z,34.22
2023-03-30T11:48:42.842Z,34.37
2023-03-30T11:51:22.028Z,34.26
2023-03-30T11:53:54.003Z,33.78
2023-03-30T11:56:27.829Z,33.91
2023-03-30T11:59:03.105Z,34.12
2023-03-30T12:01:50.291Z,33.82
2023-03-30T12:04:20.992Z,34.04
2023-03-30T12:06:51.812Z,33.85
2023-03-30T12:09:26.828Z,33.77
2023-03-30T12:12:04.590Z,34.39
2023-03-30T12:14:57.098Z,34.43
2023-03-30T12:17:33.297Z,34.19
2023-03-30T12:20:04.685Z,34.60
2023-03-30T12:22:36.336Z,34.26
2023-03-30T12:25:09.039Z,34.24
2023-03-30T12:27:52.597Z,34.43
2023-03-30T12:30:26.124Z,34.00
2023-03-30T12:33:02.351Z,34.30
2023-03-30T12:35:53.448Z,34.21
2023-03-30T12:38:23.590Z,33.90
2023-03-30T12:40:55.520Z,34.25
2023-03-30T12:43:26.439Z,34.05
2023-03-30T12:46:02.865Z,33.98
2023-03-30T12:48:36.703Z,34.50
2023-03-30T12:51:15.688Z,34.30
2023-03-30T12:53:54.282Z,34.01
2023-03-30T12:56:28.946Z,34.01
2023-03-30T12:59:24.316Z,34.22
2023-03-30T13:02:13.468Z,34.37
2023-03-30T13:04:42.010Z,34.07
2023-03-30T13:07:15.358Z,34.07
2023-03-30T13:09:55.164Z,33.96
2023-03-30T13:12:39.120Z,34.09
2023-03-30T13:15:36.491Z,33.99
2023-03-30T13:18:05.292Z,34.27
2023-03-30T13:20:34.446Z,34.67
2023-03-30T13:23:07.783Z,34.64
2023-03-30T13:25:40.139Z,34.34
2023-03-30T13:28:35.799Z,34.77
2023-03-30T13:31:10.178Z,33.94
2023-03-30T13:33:38.531Z,34.60
2023-03-30T13:36:07.439Z,34.81
2023-03-30T13:38:41.194Z,34.39
2023-03-30T13:41:15.466Z,34.63
2023-03-30T13:43:57.160Z,34.77
2023-03-30T13:46:29.627Z,34.14
2023-03-30T13:49:16.239Z,34.76
2023-03-30T13:51:44.411Z,34.17
2023-03-30T13:54:14.842Z,34.08
2023-03-30T13:56:44.876Z,34.08
2023-03-30T13:59:14.360Z,34.53
2023-03-30T14:01:46.039Z,34.73
2023-03-30T14:04:15.437Z,34.37
2023-03-30T14:06:45.847Z,34.44
2023-03-30T14:09:15.163Z,34.80
2023-03-30T14:11:45.619Z,34.36
2023-03-30T14:14:19.182Z,34.78
2023-03-30T14:16:48.730Z,34.48
2023-03-30T14:19:21.973Z,34.23
2023-03-30T14:21:50.129Z,34.55
2023-03-30T14:24:19.027Z,34.39
2023-03-30T14:26:47.761Z,34.11
2023-03-30T14:29:24.664Z,34.39
2023-03-30T14:32:08.359Z,34.52
2023-03-30T14:34:38.185Z,34.56
2023-03-30T14:37:07.552Z,34.70
2023-03-30T14:39:40.089Z,34.96
2023-03-30T14:42:11.082Z,34.46
2023-03-30T14:44:39.797Z,34.31
2023-03-30T14:47:09.257Z,34.93
2023-03-30T14:49:37.328Z,34.91
2023-03-30T14:52:08.912Z,34.57
2023-03-30T14:54:37.684Z,34.18
2023-03-30T14:57:07.520Z,35.02
2023-03-30T14:59:39.254Z,34.42
2023-03-30T15:02:12.981Z,34.27
2023-03-30T15:04:41.205Z,34.29
2023-03-30T15:07:13.259Z,34.93
2023-03-30T15:09:41.385Z,34.92
2023-03-30T15:12:09.435Z,34.57
2023-03-30T15:14:38.384Z,34.66
2023-03-30T15:17:12.141Z,34.92
2023-03-30T15:19:40.361Z,34.96
2023-03-30T15:22:11.469Z,34.68
2023-03-30T15:24:39.606Z,34.60
2023-03-30T15:27:08.451Z,34.31
2023-03-30T15:29:36.694Z,34.39
2023-03-30T15:32:09.205Z,35.05
2023-03-30T15:34:38.788Z,34.68
2023-03-30T15:37:22.269Z,34.87
2023-03-30T15:39:50.464Z,34.73
2023-03-30T15:42:26.017Z,34.56
2023-03-30T15:45:02.595Z,34.60
2023-03-30T15:47:31.097Z,35.03
2023-03-30T15:50:00.672Z,34.44
2023-03-30T15:52:34.078Z,34.81
2023-03-30T15:55:05.432Z,35.00
2023-03-30T15:57:33.652Z,34.89
2023-03-30T16:00:02.690Z,35.19
2023-03-30T16:02:40.333Z,34.83
2023-03-30T16:05:17.759Z,35.20
2023-03-30T16:07:46.020Z,34.61
2023-03-30T16:10:15.193Z,35.17
2023-03-30T16:12:43.513Z,34.83
2023-03-30T16:15:15.052Z,35.28
2023-03-30T16:17:43.197Z,34.50
2023-03-30T16:20:17.749Z,35.24
2023-03-30T16:22:47.324Z,35.21
2023-03-30T16:25:15.920Z,34.70
2023-03-30T16:27:44.210Z,34.59
2023-03-30T16:30:16.368Z,34.57
2023-03-30T16:32:44.508Z,35.12
2023-03-30T16:35:12.612Z,34.56
2023-03-30T16:37:42.103Z,35.24
2023-03-30T16:40:15.862Z,35.26
2023-03-30T16:42:43.995Z,34.74
2023-03-30T16:45:12.083Z,34.89
2023-03-30T16:47:40.231Z,35.28
2023-03-30T16:50:17.764Z,35.29
2023-03-30T16:52:47.232Z,35.19
2023-03-30T16:55:15.616Z,34.59
2023-03-30T16:57:43.729Z,35.04
2023-03-30T17:00:21.162Z,34.88
2023-03-30T17:02:49.390Z,34.67
2023-03-30T17:05:17.936Z,35.37
2023-03-30T17:07:47.578Z,35.20
2023-03-30T17:10:18.541Z,34.71
2023-03-30T17:12:46.718Z,35.27
2023-03-30T17:15:14.751Z,35.31
2023-03-30T17:17:42.923Z,35.01
2023-03-30T17:20:19.103Z,34.91
2023-03-30T17:22:48.628Z,35.33
2023-03-30T17:25:17.638Z,35.25
2023-03-30T17:27:45.852Z,34.72
2023-03-30T17:30:19.424Z,34.83
2023-03-30T17:32:47.940Z,34.92
2023-03-30T17:35:16.267Z,35.46
2023-03-30T17:37:44.509Z,35.10
2023-03-30T17:40:19.926Z,34.77
2023-03-30T17:42:48.138Z,35.04
2023-03-30T17:45:17.856Z,35.39
2023-03-30T17:47:46.159Z,35.37
2023-03-30T17:50:21.447Z,35.17
2023-03-30T17:52:49.693Z,35.41
2023-03-30T17:55:19.377Z,34.94
2023-03-30T17:57:47.644Z,35.15
2023-03-30T18:00:18.824Z,35.67
2023-03-30T18:02:47.063Z,35.51
2023-03-30T18:05:15.677Z,35.46
2023-03-30T18:07:43.861Z,35.49
2023-03-30T18:10:20.494Z,35.28
2023-03-30T18:12:48.850Z,35.49
2023-03-30T18:15:17.136Z,35.06
2023-03-30T18:17:45.355Z,35.70
2023-03-30T18:20:25.933Z,35.17
2023-03-30T18:22:54.094Z,35.15
2023-03-30T18:25:32.020Z,35.77
2023-03-30T18:28:01.380Z,35.67
2023-03-30T18:30:30.493Z,35.66
2023-03-30T18:32:58.930Z,35.09
2023-03-30T18:35:28.797Z,35.90
2023-03-30T18:37:57.093Z,35.10
2023-03-30T18:40:30.505Z,35.87
2023-03-30T18:43:00.688Z,35.45
2023-03-30T18:45:29.527Z,35.42
2023-03-30T18:47:58.388Z,35.41
2023-03-30T18:50:31.556Z,35.23
2023-03-30T18:53:02.350Z,35.92
2023-03-30T18:55:32.157Z,35.30
2023-03-30T18:58:00.228Z,35.48
2023-03-30T19:00:34.429Z,35.73
2023-03-30T19:03:03.821Z,35.80
2023-03-30T19:05:32.994Z,35.70
2023-03-30T19:08:01.502Z,36.26
2023-03-30T19:10:31.904Z,35.85
2023-03-30T19:13:00.117Z,35.81
2023-03-30T19:15:29.218Z,35.69
2023-03-30T19:17:57.622Z,36.19
2023-03-30T19:20:27.032Z,36.51
2023-03-30T19:22:55.210Z,36.38
2023-03-30T19:25:23.964Z,35.77
2023-03-30T19:28:02.653Z,36.20
2023-03-30T19:30:32.657Z,36.25
2023-03-30T19:33:02.160Z,35.83
2023-03-30T19:35:30.623Z,35.85
2023-03-30T19:37:58.760Z,35.77
2023-03-30T19:40:26.893Z,36.45
2023-03-30T19:42:56.367Z,36.46
2023-03-30T19:45:24.876Z,36.20
2023-03-30T19:47:53.268Z,36.54
2023-03-30T19:50:23.860Z,35.91
2023-03-30T19:52:52.111Z,36.10
2023-03-30T19:55:20.713Z,35.93
2023-03-30T19:57:48.815Z,36.29
2023-03-30T20:00:18.915Z,35.77
2023-03-30T20:02:48.001Z,36.57
2023-03-30T20:05:16.802Z,36.34
2023-03-30T20:07:45.072Z,35.78
2023-03-30T20:10:14.106Z,36.08
2023-03-30T20:12:42.265Z,36.19
2023-03-30T20:15:11.351Z,36.59
2023-03-30T20:17:42.076Z,36.04
2023-03-30T20:20:12.769Z,36.31
2023-03-30T20:22:41.962Z,36.04
2023-03-30T20:25:11.360Z,36.35
2023-03-30T20:27:40.269Z,35.93
2023-03-30T20:30:09.616Z,36.01
2023-03-30T20:32:37.803Z,36.58
2023-03-30T20:35:08.397Z,35.80
2023-03-30T20:37:36.499Z,36.24
2023-03-30T20:40:05.665Z,36.47
2023-03-30T20:42:33.832Z,36.07
2023-03-30T20:45:02.027Z,36.60
2023-03-30T20:47:31.349Z,36.23
2023-03-30T20:49:59.560Z,36.06
2023-03-30T20:52:29.246Z,36.16
2023-03-30T20:54:57.749Z,36.51
2023-03-30T20:57:25.936Z,36.68
2023-03-30T20:59:54.265Z,36.16
2023-03-30T21:02:22.575Z,36.31
2023-03-30T21:04:50.756Z,36.46
2023-03-30T21:07:18.920Z,36.60
2023-03-30T21:09:48.378Z,35.96
2023-03-30T21:12:16.508Z,35.88
2023-03-30T21:14:45.925Z,35.91
2023-03-30T21:17:14.090Z,36.45
2023-03-30T21:19:42.289Z,36.05
2023-03-30T21:22:10.546Z,36.64
2023-03-30T21:24:38.695Z,36.35
2023-03-30T21:27:08.169Z,36.53
2023-03-30T21:29:36.356Z,35.96
2023-03-30T21:32:04.476Z,36.29
2023-03-30T21:34:32.820Z,36.58
2023-03-30T21:37:01.225Z,36.25
2023-03-30T21:39:29.526Z,35.95
2023-03-30T21:41:57.622Z,36.41
2023-03-30T21:44:27.216Z,36.00
2023-03-30T21:46:55.316Z,36.13
2023-03-30T21:49:23.481Z,35.96
2023-03-30T21:51:52.161Z,35.79
2023-03-30T21:54:20.551Z,36.15
2023-03-30T21:56:48.771Z,36.31
2023-03-30T21:59:18.868Z,35.87
2023-03-30T22:01:48.444Z,36.09
2023-03-30T22:04:16.576Z,36.08
2023-03-30T22:06:44.788Z,36.21
2023-03-30T22:09:12.928Z,36.56
2023-03-30T22:11:41.116Z,36.59
2023-03-30T22:14:09.292Z,36.33
